« ある日2 成田国際空港 2014/9/10 wed | トップページ | 平成26年度中部管区広域緊急援助隊合同訓練 金沢市 2014/10/8 wed »

2014/10/07

ある日3 成田国際空港 2014/9/10 wed

その2からつづき

20140910_rjaa_71ja826j

JAL415 RJAA-LFPG JA826J B787-8

20140910_rjaa_72ja783a

ANA7 KSFO-RJAA JA783A B777-381ER

20140910_rjaa_73ju1011

MGL502 RJAA-ZMUB JU-1011 B767-3W0ER

20140910_rjaa_74b18205

CAL101 RJAA-RCTP B-18205 B747-409

RJAA 100600Z 13009KT 9999 FEW020 SCT030 BKN045 24/20 Q1010 NOSIG RMK 1CU020 3CU030 5SC045 A2982

20140910_rjaa_75ja625a

ANA934 ZGGG-RJAA JA625A B767-381ER

20140910_rjaa_76n666us

DAL172 RJAA-KJFK N666US B747-451

20140910_rjaa_77ja735j

JAL9 KORD-RJAA JA735J B777-346ER

20140910_rjaa_78n865da

DAL276 RJAA-KDTW N865DA B777-232ER

20140910_rjaa_79b2443

CCA930 RJAA-ZSPD B-2443 B747-4J6

20140910_rjaa_80n27908

UAL139 KDEN-RJAA N27908 B787-8

20140910_rjaa_81ja777a

ANA9 KJFK-RJAA JA777A B777-381ER

20140910_rjaa_82ja16jj

JJP305 RJAA-ROAH JA16JJ A320-232

20140910_rjaa_83ja8196

ANA3234 RJSS-RJAA JA8196 B737-54K

20140910_rjaa_84vnl

新顔だったバニラもすっかりお馴染みに・・

20140910_rjaa_85ja788a

ANA1 KIAD-RJAA JA788A B777-381ER

20140910_rjaa_86ja8385

VNL805 RJAA-ROAH JA8385 A320-211

20140910_rjaa_87cgeoq

ACA009 CYYC-RJAA C-GEOQ B767-375ER

20140910_rjaa_88ja01va

VNL821 RJAA-RJKA JA01VA A320-216

20140910_rjaa_89n180ua

UAL881 KORD-RJAA N180UA B747-422

20140910_rjaa_90b2445

CCA926 RJAA-ZBAA B-2445 B747-4J6

20140910_rjaa_91ja813a

ANA1077 KSEA-RJAA JA813A B787-8

RJAA 100630Z 14009KT 9999 FEW020 SCT030 BKN/// 24/20 Q1010 NOSIG

20140910_rjaa_92vna602

HVN319 RJAA-VVDN VN-A602 A321-231

20140910_rjaa_93sky

参入当初は珍しかったが、今じゃあたりまえの景色。しかし、これも残りわずか。

20140910_rjaa_94n171dn

DAL617 PHNL-RJAA N171DN B767-332ER

20140910_rjaa_95ja737n

SKY875 RJAA-RJCC JA737N B737-8HX

20140910_rjaa_96hl7609

KAL551 RKSI-RJAA HL7609 B747-8THF

20140910_rjaa_97ja73ng

SKY855 RJAA-ROAH JA73NG B737-86N

20140910_rjaa_98n965am

AMX057 RJAA-MMMX N965AM B787-8

20140910_rjaa_99ja821j

JAL7 KBOS-RJAA JA821J B787-8

20140910_rjaa_a0ja843a

ANA3240 RJSN-RJAA JA843A DHC8-402Q

20140910_rjaa_a1n78003

UAL6 RJAA-KIAH N78003 B777-224ER

20140910_rjaa_a2hstud

20140910_rjaa_a3hstud

THA676 VTBS-RJAA HS-TUD A380-841

20140910_rjaa_a4n165fe

FDX295 RJAA-RCTP N165FE MD-11F

20140910_rjaa_a5ja827j_2

JAL783 PHNL-RJAA JA827J B787-8

20140910_rjaa_a6n767aj

AAL169 KLAX-RJAA N767AJ B777-223ER

はい、この日はここでおしまい。

|

« ある日2 成田国際空港 2014/9/10 wed | トップページ | 平成26年度中部管区広域緊急援助隊合同訓練 金沢市 2014/10/8 wed »

成田国際空港」カテゴリの記事

コメント

コメントを書く



(ウェブ上には掲載しません)


コメントは記事投稿者が公開するまで表示されません。



トラックバック


この記事へのトラックバック一覧です: ある日3 成田国際空港 2014/9/10 wed:

« ある日2 成田国際空港 2014/9/10 wed | トップページ | 平成26年度中部管区広域緊急援助隊合同訓練 金沢市 2014/10/8 wed »